Time;durP1;ratioP1;P1;durP2;ratioP2;P2;SDS_P1;SDS_P2;PMS_P1;PMS_P2;Temp;Humidity;BMP_temperature;BMP_pressure;BME280_temperature;BME280_humidity;BME280_pressure;Samples;Min_cycle;Max_cycle;Signal;HPM_P1;HPM_P2
2023/12/01 00:00:16;;;;;;;16.77;9.43;;;;;;;;;;5087061;28;20207;-63
2023/12/01 00:02:43;;;;;;;20.40;11.47;;;;;;;;;;5079241;28;20672;-63
2023/12/01 00:05:11;;;;;;;15.63;10.20;;;;;;;;;;5079034;28;20202;-63
2023/12/01 00:07:38;;;;;;;17.10;9.27;;;;;;;;;;5087110;28;20210;-62
2023/12/01 00:10:06;;;;;;;18.23;10.80;;;;;;;;;;5078060;28;20203;-62
2023/12/01 00:12:33;;;;;;;19.57;10.00;;;;;;;;;;5079731;28;20222;-63
2023/12/01 00:15:00;;;;;;;17.90;10.13;;;;;;;;;;5085835;28;20199;-62
2023/12/01 00:17:27;;;;;;;18.97;10.50;;;;;;;;;;5079400;28;20264;-63
2023/12/01 00:19:54;;;;;;;16.83;9.70;;;;;;;;;;5079787;28;20207;-62
2023/12/01 00:22:22;;;;;;;17.87;8.57;;;;;;;;;;5067236;28;20223;-63
2023/12/01 00:24:49;;;;;;;18.53;9.17;;;;;;;;;;5067070;28;20213;-63
2023/12/01 00:27:16;;;;;;;20.13;10.20;;;;;;;;;;5083394;28;20210;-63
2023/12/01 00:29:43;;;;;;;19.43;10.63;;;;;;;;;;5075256;28;20688;-63
2023/12/01 00:32:11;;;;;;;19.40;10.63;;;;;;;;;;5070377;28;20230;-63
2023/12/01 00:34:38;;;;;;;19.17;10.07;;;;;;;;;;5072893;28;20203;-62
2023/12/01 00:37:05;;;;;;;16.53;9.97;;;;;;;;;;5067205;28;20202;-61
2023/12/01 00:39:33;;;;;;;17.23;9.30;;;;;;;;;;5081887;28;20213;-63
2023/12/01 00:42:00;;;;;;;10.77;6.37;;;;;;;;;;5083954;28;20829;-62
2023/12/01 00:44:27;;;;;;;19.20;9.47;;;;;;;;;;5075156;28;20557;-63
2023/12/01 00:46:55;;;;;;;19.27;9.83;;;;;;;;;;5089004;28;20238;-62
2023/12/01 00:49:22;;;;;;;15.17;8.73;;;;;;;;;;5089887;28;20226;-63
2023/12/01 00:51:49;;;;;;;17.17;8.60;;;;;;;;;;5087389;28;20241;-62
2023/12/01 00:54:16;;;;;;;16.83;8.93;;;;;;;;;;5079353;28;20211;-62
2023/12/01 00:56:44;;;;;;;16.70;8.60;;;;;;;;;;5072022;28;20210;-63
2023/12/01 00:59:11;;;;;;;15.57;7.73;;;;;;;;;;5087990;28;20847;-63
2023/12/01 01:01:38;;;;;;;16.87;9.13;;;;;;;;;;5090179;28;20217;-63
2023/12/01 01:04:05;;;;;;;15.03;8.10;;;;;;;;;;5091171;28;20214;-62
2023/12/01 01:06:32;;;;;;;12.73;7.53;;;;;;;;;;5088577;28;20593;-63
2023/12/01 01:08:59;;;;;;;14.13;7.30;;;;;;;;;;5087120;28;20203;-63
2023/12/01 01:11:26;;;;;;;14.73;7.87;;;;;;;;;;5079841;28;20276;-62
2023/12/01 01:13:55;;;;;;;13.70;7.30;;;;;;;;;;5077511;28;20222;-62
2023/12/01 01:16:22;;;;;;;15.07;8.53;;;;;;;;;;5072022;28;20744;-62
2023/12/01 01:18:49;;;;;;;14.30;7.87;;;;;;;;;;5082720;28;20203;-62
2023/12/01 01:21:16;;;;;;;15.63;8.93;;;;;;;;;;5085094;28;20689;-62
2023/12/01 01:23:43;;;;;;;11.27;6.37;;;;;;;;;;5086169;28;20780;-63
2023/12/01 01:26:10;;;;;;;15.33;8.77;;;;;;;;;;5077467;28;20213;-63
2023/12/01 01:28:37;;;;;;;15.63;7.63;;;;;;;;;;5088231;28;20214;-63
2023/12/01 01:31:06;;;;;;;10.23;6.47;;;;;;;;;;5083896;28;20207;-62
2023/12/01 01:33:34;;;;;;;14.00;7.70;;;;;;;;;;5072613;28;20216;-63
2023/12/01 01:36:01;;;;;;;13.53;7.50;;;;;;;;;;5072491;28;20215;-63
2023/12/01 01:38:29;;;;;;;13.63;7.80;;;;;;;;;;5072675;28;20282;-63
2023/12/01 01:40:56;;;;;;;15.53;7.80;;;;;;;;;;5083228;28;20241;-62
2023/12/01 01:43:24;;;;;;;13.10;7.57;;;;;;;;;;5076496;28;20241;-62
2023/12/01 01:45:55;;;;;;;10.03;5.97;;;;;;;;;;5071549;28;20602;-62
2023/12/01 01:48:24;;;;;;;9.83;5.47;;;;;;;;;;5069510;28;20653;-62
2023/12/01 01:50:51;;;;;;;13.13;7.20;;;;;;;;;;5069345;28;20211;-63
2023/12/01 01:53:18;;;;;;;14.03;7.57;;;;;;;;;;5070025;28;20688;-63
2023/12/01 01:55:46;;;;;;;14.27;7.43;;;;;;;;;;5075582;28;20199;-62
2023/12/01 01:58:13;;;;;;;8.67;5.47;;;;;;;;;;5086073;28;20301;-63
2023/12/01 02:00:40;;;;;;;8.10;5.20;;;;;;;;;;5079689;28;20230;-62
2023/12/01 02:03:07;;;;;;;4.23;3.53;;;;;;;;;;5082538;28;20210;-63
2023/12/01 02:05:35;;;;;;;5.83;4.13;;;;;;;;;;5083580;28;20206;-62
2023/12/01 02:08:17;;;;;;;6.80;4.77;;;;;;;;;;5088283;28;20218;-62
2023/12/01 02:10:44;;;;;;;4.00;2.53;;;;;;;;;;5068717;28;20211;-62
2023/12/01 02:13:14;;;;;;;5.40;4.00;;;;;;;;;;5069142;28;20234;-62
2023/12/01 02:15:41;;;;;;;4.60;4.10;;;;;;;;;;5069176;28;20218;-62
2023/12/01 02:18:19;;;;;;;5.17;4.40;;;;;;;;;;5078825;28;20211;-62
2023/12/01 02:20:48;;;;;;;5.27;3.20;;;;;;;;;;5069353;28;20214;-62
2023/12/01 02:23:16;;;;;;;6.63;2.53;;;;;;;;;;5085723;28;20230;-63
2023/12/01 02:25:43;;;;;;;5.00;3.67;;;;;;;;;;5073739;28;20283;-62
2023/12/01 02:28:10;;;;;;;4.77;3.47;;;;;;;;;;5079582;28;20207;-62
2023/12/01 02:30:37;;;;;;;5.20;4.10;;;;;;;;;;5078111;28;20201;-63
2023/12/01 02:33:05;;;;;;;3.97;3.60;;;;;;;;;;5077945;28;20222;-63
2023/12/01 02:35:32;;;;;;;4.00;3.60;;;;;;;;;;5075020;28;20207;-63
2023/12/01 02:37:59;;;;;;;4.10;3.57;;;;;;;;;;5085361;28;20736;-62
2023/12/01 02:40:28;;;;;;;4.33;3.90;;;;;;;;;;5068383;28;20214;-63
2023/12/01 02:42:55;;;;;;;6.17;4.20;;;;;;;;;;5069473;28;20290;-63
2023/12/01 02:45:23;;;;;;;6.63;4.70;;;;;;;;;;5085641;28;20341;-62
2023/12/01 02:47:50;;;;;;;5.17;4.30;;;;;;;;;;5089154;28;20268;-63
2023/12/01 02:50:17;;;;;;;4.67;3.93;;;;;;;;;;5085276;28;20206;-63
2023/12/01 02:52:44;;;;;;;5.87;3.50;;;;;;;;;;5082988;28;20241;-62
2023/12/01 02:55:12;;;;;;;4.97;3.90;;;;;;;;;;5076751;28;20476;-63
2023/12/01 02:57:41;;;;;;;4.93;4.00;;;;;;;;;;5069855;28;20623;-62
2023/12/01 03:00:10;;;;;;;6.90;3.93;;;;;;;;;;5080365;28;20210;-63
2023/12/01 03:02:37;;;;;;;5.87;4.13;;;;;;;;;;5076627;28;20747;-63
2023/12/01 03:05:05;;;;;;;6.97;4.67;;;;;;;;;;5068692;28;20620;-63
2023/12/01 03:07:32;;;;;;;5.60;4.63;;;;;;;;;;5085194;28;20204;-63
2023/12/01 03:09:59;;;;;;;5.80;4.27;;;;;;;;;;5088885;28;20682;-62
2023/12/01 03:12:26;;;;;;;6.03;3.43;;;;;;;;;;5068770;28;20227;-63
2023/12/01 03:14:55;;;;;;;7.63;4.63;;;;;;;;;;5068895;28;20571;-62
2023/12/01 03:17:23;;;;;;;4.87;4.03;;;;;;;;;;5071053;28;20206;-62
2023/12/01 03:19:50;;;;;;;5.00;3.87;;;;;;;;;;5069422;28;20796;-62
2023/12/01 03:22:17;;;;;;;3.67;2.43;;;;;;;;;;5071330;28;20264;-62
2023/12/01 03:24:44;;;;;;;5.93;3.97;;;;;;;;;;5079855;28;20222;-63
2023/12/01 03:27:11;;;;;;;4.00;3.60;;;;;;;;;;5079549;28;20797;-63
2023/12/01 03:29:40;;;;;;;3.80;3.20;;;;;;;;;;5081152;28;20209;-64
2023/12/01 03:32:08;;;;;;;3.40;3.10;;;;;;;;;;5082437;28;20343;-63
2023/12/01 03:34:35;;;;;;;2.97;2.70;;;;;;;;;;5067922;28;20550;-62
2023/12/01 03:37:03;;;;;;;2.47;2.27;;;;;;;;;;5068603;28;20233;-63
2023/12/01 03:42:33;;;;;;;3.60;3.17;;;;;;;;;;5068084;28;20252;-63
2023/12/01 03:45:00;;;;;;;3.83;3.33;;;;;;;;;;5068217;28;20210;-62
2023/12/01 03:47:29;;;;;;;3.70;3.30;;;;;;;;;;5082864;28;20210;-63
2023/12/01 03:49:56;;;;;;;4.63;3.43;;;;;;;;;;5073797;28;20782;-62
2023/12/01 03:52:22;;;;;;;2.70;2.50;;;;;;;;;;5082441;28;20226;-63
2023/12/01 03:54:49;;;;;;;3.80;3.07;;;;;;;;;;5078517;28;20202;-63
2023/12/01 03:57:16;;;;;;;4.37;3.30;;;;;;;;;;5077742;28;20592;-63
2023/12/01 03:59:43;;;;;;;4.30;3.07;;;;;;;;;;5081594;28;20209;-63
2023/12/01 04:02:11;;;;;;;6.00;3.63;;;;;;;;;;5074642;28;20904;-64
2023/12/01 04:04:40;;;;;;;3.50;3.20;;;;;;;;;;5072177;28;20198;-62
2023/12/01 04:07:07;;;;;;;2.57;2.23;;;;;;;;;;5084592;28;20207;-63
2023/12/01 04:09:34;;;;;;;2.50;2.40;;;;;;;;;;5082868;28;20203;-63
2023/12/01 04:12:01;;;;;;;2.63;2.53;;;;;;;;;;5083618;28;20664;-63
2023/12/01 04:14:29;;;;;;;7.70;3.17;;;;;;;;;;5072197;28;20222;-62
2023/12/01 04:16:57;;;;;;;2.57;1.70;;;;;;;;;;5069265;28;20262;-62
2023/12/01 04:19:24;;;;;;;4.47;2.60;;;;;;;;;;5068516;28;20910;-63
2023/12/01 04:21:53;;;;;;;3.17;2.90;;;;;;;;;;5083166;28;20198;-63
2023/12/01 04:24:21;;;;;;;3.27;2.77;;;;;;;;;;5086186;28;20562;-63
2023/12/01 04:26:49;;;;;;;2.83;2.63;;;;;;;;;;5074290;28;20301;-62
2023/12/01 04:29:16;;;;;;;3.90;3.07;;;;;;;;;;5074700;28;20720;-63
2023/12/01 04:31:43;;;;;;;2.17;2.07;;;;;;;;;;5071124;28;20213;-63
2023/12/01 04:34:10;;;;;;;3.23;2.77;;;;;;;;;;5079841;28;20214;-63
2023/12/01 04:36:37;;;;;;;3.03;2.80;;;;;;;;;;5072538;28;20207;-63
2023/12/01 04:39:06;;;;;;;3.43;3.13;;;;;;;;;;5076828;28;20203;-62
2023/12/01 04:41:33;;;;;;;3.00;2.80;;;;;;;;;;5069732;28;20203;-63
2023/12/01 04:44:00;;;;;;;3.17;2.87;;;;;;;;;;5074612;28;20941;-63
2023/12/01 04:46:27;;;;;;;2.90;2.70;;;;;;;;;;5083712;28;20238;-62
2023/12/01 04:48:55;;;;;;;3.47;2.50;;;;;;;;;;5069280;28;20218;-63
2023/12/01 04:51:22;;;;;;;2.50;2.40;;;;;;;;;;5080319;28;20337;-63
2023/12/01 04:53:49;;;;;;;2.57;2.37;;;;;;;;;;5080680;28;20218;-63
2023/12/01 04:56:17;;;;;;;4.47;2.93;;;;;;;;;;5086700;28;20226;-63
2023/12/01 04:58:44;;;;;;;2.90;2.70;;;;;;;;;;5070324;28;20229;-63
2023/12/01 05:01:11;;;;;;;3.10;2.90;;;;;;;;;;5067907;28;20212;-63
2023/12/01 05:03:38;;;;;;;3.07;2.57;;;;;;;;;;5076031;28;20203;-63
2023/12/01 05:06:05;;;;;;;3.17;2.60;;;;;;;;;;5081909;28;20206;-62
2023/12/01 05:08:33;;;;;;;2.47;2.23;;;;;;;;;;5080387;28;20211;-63
2023/12/01 05:11:00;;;;;;;2.70;2.50;;;;;;;;;;5085707;28;20741;-63
2023/12/01 05:13:28;;;;;;;2.10;1.90;;;;;;;;;;5073066;28;20230;-63
2023/12/01 05:15:55;;;;;;;2.00;1.90;;;;;;;;;;5068195;28;20207;-63
2023/12/01 05:18:22;;;;;;;2.40;2.20;;;;;;;;;;5081505;28;20211;-63
2023/12/01 05:20:49;;;;;;;2.20;2.10;;;;;;;;;;5078388;28;20742;-63
2023/12/01 05:23:17;;;;;;;1.53;1.43;;;;;;;;;;5078241;28;20226;-63
2023/12/01 05:25:46;;;;;;;1.53;1.33;;;;;;;;;;5085296;28;20577;-63
2023/12/01 05:28:13;;;;;;;1.90;1.23;;;;;;;;;;5085293;28;20202;-64
2023/12/01 05:30:43;;;;;;;1.20;1.20;;;;;;;;;;5089662;28;20199;-63
2023/12/01 05:33:10;;;;;;;2.73;2.53;;;;;;;;;;5077394;28;20300;-63
2023/12/01 05:35:37;;;;;;;2.40;2.20;;;;;;;;;;5085867;28;20207;-63
2023/12/01 05:38:05;;;;;;;1.77;1.67;;;;;;;;;;5074901;28;20803;-63
2023/12/01 05:40:34;;;;;;;0.83;0.83;;;;;;;;;;5075382;28;20198;-63
2023/12/01 05:43:01;;;;;;;1.63;1.47;;;;;;;;;;5084458;28;20205;-63
2023/12/01 05:45:32;;;;;;;7.37;2.80;;;;;;;;;;5081592;28;20249;-62
2023/12/01 05:48:02;;;;;;;4.23;2.80;;;;;;;;;;5081424;28;20672;-63
2023/12/01 05:50:30;;;;;;;2.70;2.50;;;;;;;;;;5073139;28;20640;-62
2023/12/01 05:52:58;;;;;;;3.90;3.33;;;;;;;;;;5081955;28;20738;-62
2023/12/01 05:55:26;;;;;;;1.87;1.50;;;;;;;;;;5078488;28;20692;-64
2023/12/01 05:57:55;;;;;;;2.53;2.30;;;;;;;;;;5073085;28;20661;-63
2023/12/01 06:00:23;;;;;;;5.23;2.93;;;;;;;;;;5077598;28;20210;-63
2023/12/01 06:02:51;;;;;;;5.10;2.67;;;;;;;;;;5081908;28;20217;-63
2023/12/01 06:05:20;;;;;;;3.73;3.10;;;;;;;;;;5075572;28;20615;-63
2023/12/01 06:07:49;;;;;;;2.07;1.70;;;;;;;;;;5087622;28;20234;-63
2023/12/01 06:10:17;;;;;;;2.70;2.43;;;;;;;;;;5074668;28;20210;-63
2023/12/01 06:12:44;;;;;;;4.97;3.27;;;;;;;;;;5084039;28;20233;-63
2023/12/01 06:15:12;;;;;;;5.67;4.30;;;;;;;;;;5089323;28;20202;-63
2023/12/01 06:17:40;;;;;;;4.00;3.13;;;;;;;;;;5084348;28;20206;-63
2023/12/01 06:20:16;;;;;;;5.20;3.40;;;;;;;;;;5072224;28;20214;-63
2023/12/01 06:22:45;;;;;;;5.10;3.47;;;;;;;;;;5081669;28;20594;-63
2023/12/01 06:25:12;;;;;;;2.53;2.33;;;;;;;;;;5080554;28;20205;-64
2023/12/01 06:27:40;;;;;;;5.43;4.13;;;;;;;;;;5082037;28;20206;-64
2023/12/01 06:30:11;;;;;;;2.13;2.03;;;;;;;;;;5085778;28;20676;-64
2023/12/01 06:32:38;;;;;;;5.00;3.73;;;;;;;;;;5087858;28;20237;-64
2023/12/01 06:35:06;;;;;;;2.90;2.70;;;;;;;;;;5089269;28;20263;-64
2023/12/01 06:37:33;;;;;;;2.87;2.60;;;;;;;;;;5088932;28;20206;-64
2023/12/01 06:40:03;;;;;;;4.80;3.00;;;;;;;;;;5089215;28;20217;-64
2023/12/01 06:42:30;;;;;;;2.00;1.70;;;;;;;;;;5081117;28;20205;-64
2023/12/01 06:44:57;;;;;;;3.63;2.90;;;;;;;;;;5079252;28;20268;-64
2023/12/01 06:47:24;;;;;;;2.37;2.17;;;;;;;;;;5087283;28;20209;-64
2023/12/01 06:49:51;;;;;;;2.00;1.80;;;;;;;;;;5087317;28;20218;-64
2023/12/01 06:52:18;;;;;;;3.23;2.50;;;;;;;;;;5089170;28;20214;-64
2023/12/01 06:54:45;;;;;;;5.07;3.20;;;;;;;;;;5088566;28;20753;-63
2023/12/01 06:57:15;;;;;;;5.90;4.50;;;;;;;;;;5088961;28;20214;-64
2023/12/01 06:59:42;;;;;;;5.17;4.00;;;;;;;;;;5088952;28;20214;-64
2023/12/01 07:02:09;;;;;;;9.70;4.97;;;;;;;;;;5072222;28;20306;-63
2023/12/01 07:04:36;;;;;;;3.10;2.73;;;;;;;;;;5088798;28;20209;-64
2023/12/01 07:07:03;;;;;;;2.67;2.40;;;;;;;;;;5080909;28;20210;-64
2023/12/01 07:09:30;;;;;;;3.23;2.93;;;;;;;;;;5068598;28;20210;-63
2023/12/01 07:11:58;;;;;;;1.97;1.77;;;;;;;;;;5077116;28;20206;-64
2023/12/01 07:14:26;;;;;;;3.37;3.07;;;;;;;;;;5087048;28;20229;-63
2023/12/01 07:16:53;;;;;;;3.20;2.90;;;;;;;;;;5084993;28;20207;-63
2023/12/01 07:19:20;;;;;;;1.97;1.47;;;;;;;;;;5073990;28;21016;-63
2023/12/01 07:21:47;;;;;;;2.93;2.60;;;;;;;;;;5088312;28;20216;-64
2023/12/01 07:24:14;;;;;;;2.60;2.40;;;;;;;;;;5088642;28;20712;-63
2023/12/01 07:26:41;;;;;;;3.60;2.80;;;;;;;;;;5073972;28;20665;-65
2023/12/01 07:29:09;;;;;;;1.47;1.37;;;;;;;;;;5087133;28;20213;-66
2023/12/01 07:31:37;;;;;;;2.57;2.37;;;;;;;;;;5080187;28;20210;-69
2023/12/01 07:34:04;;;;;;;3.10;2.83;;;;;;;;;;5088233;28;20287;-63
2023/12/01 07:36:33;;;;;;;2.97;2.37;;;;;;;;;;5088174;28;20232;-64
2023/12/01 07:39:00;;;;;;;5.67;3.33;;;;;;;;;;5087613;28;20212;-66
2023/12/01 07:41:27;;;;;;;2.43;2.23;;;;;;;;;;5067391;28;20844;-63
2023/12/01 07:43:55;;;;;;;6.73;5.20;;;;;;;;;;5074606;28;20254;-64
2023/12/01 07:46:22;;;;;;;3.63;2.93;;;;;;;;;;5072796;28;20245;-63
2023/12/01 07:48:50;;;;;;;2.33;2.13;;;;;;;;;;5087946;28;20202;-64
2023/12/01 07:51:17;;;;;;;3.43;2.60;;;;;;;;;;5087571;28;20638;-64
2023/12/01 07:53:45;;;;;;;3.97;3.30;;;;;;;;;;5086986;28;20226;-64
2023/12/01 07:56:13;;;;;;;2.70;2.50;;;;;;;;;;5087601;28;20214;-63
2023/12/01 07:58:42;;;;;;;3.97;3.67;;;;;;;;;;5087893;28;20216;-63
2023/12/01 08:01:09;;;;;;;3.93;3.53;;;;;;;;;;5087717;28;20639;-63
2023/12/01 08:03:37;;;;;;;3.20;3.00;;;;;;;;;;5087548;28;20236;-63
2023/12/01 08:06:07;;;;;;;2.43;2.17;;;;;;;;;;5087533;28;20217;-64
2023/12/01 08:08:35;;;;;;;4.80;3.90;;;;;;;;;;5088069;28;20307;-63
2023/12/01 08:11:04;;;;;;;4.57;3.50;;;;;;;;;;5087595;28;20211;-63
2023/12/01 08:13:31;;;;;;;7.30;5.10;;;;;;;;;;5087733;28;20329;-64
2023/12/01 08:15:58;;;;;;;4.30;3.43;;;;;;;;;;5087474;28;20210;-64
2023/12/01 08:18:25;;;;;;;6.87;4.20;;;;;;;;;;5087566;28;20837;-64
2023/12/01 08:20:52;;;;;;;3.77;2.70;;;;;;;;;;5087491;28;20213;-64
2023/12/01 08:23:20;;;;;;;6.97;3.97;;;;;;;;;;5087361;28;20261;-64
2023/12/01 08:25:47;;;;;;;5.37;4.00;;;;;;;;;;5087520;28;20726;-64
2023/12/01 08:28:15;;;;;;;3.87;3.50;;;;;;;;;;5087457;28;20214;-64
2023/12/01 08:30:42;;;;;;;5.27;3.63;;;;;;;;;;5087682;28;20206;-64
2023/12/01 08:33:09;;;;;;;4.93;4.20;;;;;;;;;;5087223;28;20206;-65
2023/12/01 08:35:36;;;;;;;1.47;1.37;;;;;;;;;;5087400;28;20218;-64
2023/12/01 08:38:03;;;;;;;5.90;4.10;;;;;;;;;;5087134;28;20217;-64
2023/12/01 08:40:32;;;;;;;5.17;3.70;;;;;;;;;;5087507;28;20217;-64
2023/12/01 08:42:59;;;;;;;3.53;3.03;;;;;;;;;;5087015;28;20652;-64
2023/12/01 08:45:26;;;;;;;3.97;2.63;;;;;;;;;;5087147;28;20233;-64
2023/12/01 08:47:53;;;;;;;7.67;5.47;;;;;;;;;;5086579;28;20217;-65
2023/12/01 08:50:20;;;;;;;8.10;5.03;;;;;;;;;;5087444;28;20642;-66
2023/12/01 08:52:47;;;;;;;7.83;5.60;;;;;;;;;;5087160;28;20232;-65
2023/12/01 08:55:14;;;;;;;6.23;3.77;;;;;;;;;;5087359;28;20225;-66
2023/12/01 08:57:42;;;;;;;5.07;3.70;;;;;;;;;;5087088;28;20210;-64
2023/12/01 09:00:10;;;;;;;3.40;2.70;;;;;;;;;;5086895;28;20232;-64
2023/12/01 09:02:37;;;;;;;5.33;4.17;;;;;;;;;;5087220;28;20537;-64
2023/12/01 09:05:05;;;;;;;4.70;3.90;;;;;;;;;;5089084;28;20206;-64
2023/12/01 09:07:32;;;;;;;6.53;4.60;;;;;;;;;;5091033;28;20207;-64
2023/12/01 09:09:59;;;;;;;7.73;5.37;;;;;;;;;;5091138;28;20608;-63
2023/12/01 09:12:26;;;;;;;7.07;4.83;;;;;;;;;;5090390;28;20260;-64
2023/12/01 09:14:55;;;;;;;8.90;4.63;;;;;;;;;;5090812;28;20715;-64
2023/12/01 09:17:22;;;;;;;4.37;3.47;;;;;;;;;;5082102;28;20222;-67
2023/12/01 09:19:49;;;;;;;6.50;5.20;;;;;;;;;;5070344;28;20218;-65
2023/12/01 09:22:16;;;;;;;7.73;5.27;;;;;;;;;;5070704;28;20868;-64
2023/12/01 09:24:45;;;;;;;7.00;5.40;;;;;;;;;;5070281;28;20261;-64
2023/12/01 09:27:12;;;;;;;8.13;5.13;;;;;;;;;;5070385;28;20219;-64
2023/12/01 09:29:39;;;;;;;4.30;3.90;;;;;;;;;;5070602;28;20218;-65
2023/12/01 09:32:07;;;;;;;9.97;5.00;;;;;;;;;;5070238;28;20221;-65
2023/12/01 09:34:35;;;;;;;6.27;4.67;;;;;;;;;;5070428;28;20231;-65
2023/12/01 09:37:02;;;;;;;7.97;4.57;;;;;;;;;;5070206;28;20804;-65
2023/12/01 09:39:30;;;;;;;6.50;4.90;;;;;;;;;;5070147;28;20211;-65
2023/12/01 09:41:57;;;;;;;5.47;4.60;;;;;;;;;;5070259;28;20242;-65
2023/12/01 09:44:24;;;;;;;3.70;2.90;;;;;;;;;;5069934;28;20215;-66
2023/12/01 09:46:53;;;;;;;9.37;4.00;;;;;;;;;;5069971;28;20250;-65
2023/12/01 09:49:22;;;;;;;7.50;4.77;;;;;;;;;;5073342;28;20209;-65
2023/12/01 09:51:49;;;;;;;2.33;2.20;;;;;;;;;;5071619;28;20301;-65
2023/12/01 09:54:17;;;;;;;8.07;5.17;;;;;;;;;;5072687;28;20240;-65
2023/12/01 09:56:44;;;;;;;1.80;1.70;;;;;;;;;;5088724;28;20210;-65
2023/12/01 09:59:15;;;;;;;6.47;4.73;;;;;;;;;;5088582;28;20647;-64
2023/12/01 10:01:44;;;;;;;1.93;1.73;;;;;;;;;;5089719;28;20241;-65
2023/12/01 10:04:11;;;;;;;5.37;4.47;;;;;;;;;;5089373;28;20237;-65
2023/12/01 10:06:40;;;;;;;3.20;2.90;;;;;;;;;;5089618;28;20214;-65
2023/12/01 10:09:10;;;;;;;6.37;3.50;;;;;;;;;;5088923;28;20209;-65
2023/12/01 10:11:37;;;;;;;6.50;4.10;;;;;;;;;;5089340;28;20206;-65
2023/12/01 10:14:07;;;;;;;4.60;2.87;;;;;;;;;;5089399;28;20719;-65
2023/12/01 10:16:36;;;;;;;5.53;3.50;;;;;;;;;;5088356;28;20684;-65
2023/12/01 10:19:05;;;;;;;1.83;1.70;;;;;;;;;;5089062;28;20225;-65
2023/12/01 10:21:43;;;;;;;3.23;2.97;;;;;;;;;;5070662;28;20777;-65
2023/12/01 10:24:20;;;;;;;3.03;2.17;;;;;;;;;;5069342;28;20728;-64
2023/12/01 10:26:47;;;;;;;1.90;1.50;;;;;;;;;;5069252;28;20217;-65
2023/12/01 10:29:24;;;;;;;1.57;1.47;;;;;;;;;;5068788;28;20238;-65
2023/12/01 10:31:52;;;;;;;1.80;1.70;;;;;;;;;;5068777;28;20209;-65
2023/12/01 10:34:19;;;;;;;5.37;3.10;;;;;;;;;;5068456;28;20237;-65
2023/12/01 10:36:48;;;;;;;2.80;2.53;;;;;;;;;;5068956;28;20225;-65
2023/12/01 10:39:17;;;;;;;3.27;2.57;;;;;;;;;;5068331;28;20206;-64
2023/12/01 10:41:45;;;;;;;6.37;2.90;;;;;;;;;;5068553;28;20234;-65
2023/12/01 10:44:16;;;;;;;3.90;3.47;;;;;;;;;;5068600;28;20210;-64
2023/12/01 10:46:44;;;;;;;6.47;3.50;;;;;;;;;;5069104;28;20687;-66
2023/12/01 10:49:11;;;;;;;4.27;3.77;;;;;;;;;;5078097;28;20214;-64
2023/12/01 10:51:39;;;;;;;2.03;1.83;;;;;;;;;;5088714;28;20206;-65
2023/12/01 10:54:10;;;;;;;1.73;1.63;;;;;;;;;;5088480;28;20210;-66
2023/12/01 10:56:42;;;;;;;3.70;3.10;;;;;;;;;;5088933;28;20206;-64
2023/12/01 10:59:10;;;;;;;1.70;1.60;;;;;;;;;;5088254;28;20220;-65
2023/12/01 11:01:38;;;;;;;2.90;2.13;;;;;;;;;;5088564;28;20655;-65
2023/12/01 11:04:07;;;;;;;4.07;3.00;;;;;;;;;;5088174;28;20215;-65
2023/12/01 11:06:40;;;;;;;1.13;1.13;;;;;;;;;;5088390;28;20745;-65
2023/12/01 11:09:11;;;;;;;1.90;1.80;;;;;;;;;;5088242;28;20298;-65
2023/12/01 11:11:41;;;;;;;2.37;2.23;;;;;;;;;;5088202;28;20215;-65
2023/12/01 11:14:13;;;;;;;1.30;1.20;;;;;;;;;;5088284;28;20721;-65
2023/12/01 11:16:42;;;;;;;1.57;1.40;;;;;;;;;;5088059;28;20664;-66
2023/12/01 11:19:09;;;;;;;2.87;2.67;;;;;;;;;;5087840;28;20613;-65
2023/12/01 11:21:36;;;;;;;3.27;2.20;;;;;;;;;;5087706;28;20240;-70
2023/12/01 11:24:22;;;;;;;2.70;2.50;;;;;;;;;;5088099;28;20237;-65
2023/12/01 11:26:52;;;;;;;5.00;1.73;;;;;;;;;;5087793;28;20206;-65
2023/12/01 11:29:28;;;;;;;1.80;1.77;;;;;;;;;;5087814;28;20240;-65
2023/12/01 11:31:57;;;;;;;1.83;1.70;;;;;;;;;;5088033;28;20214;-65
2023/12/01 11:34:25;;;;;;;3.17;2.97;;;;;;;;;;5087603;28;20230;-63
2023/12/01 11:36:54;;;;;;;2.60;2.03;;;;;;;;;;5088105;28;20234;-67
2023/12/01 11:39:20;;;;;;;2.43;1.37;;;;;;;;;;5087410;28;20749;-65
2023/12/01 11:42:15;;;;;;;0.90;0.90;;;;;;;;;;5087560;28;20581;-66
2023/12/01 11:44:44;;;;;;;2.60;1.67;;;;;;;;;;5087685;28;20335;-64
2023/12/01 11:47:13;;;;;;;1.87;1.77;;;;;;;;;;5087553;28;20206;-65
2023/12/01 11:49:41;;;;;;;1.43;1.43;;;;;;;;;;5086658;28;20532;-64
2023/12/01 11:52:11;;;;;;;1.80;1.70;;;;;;;;;;5086629;28;20797;-63
2023/12/01 11:54:38;;;;;;;1.70;1.53;;;;;;;;;;5087037;28;20234;-62
2023/12/01 11:57:08;;;;;;;2.57;2.37;;;;;;;;;;5087330;28;20216;-62
2023/12/01 11:59:35;;;;;;;2.93;2.73;;;;;;;;;;5086385;28;20584;-62
2023/12/01 12:02:02;;;;;;;2.30;2.10;;;;;;;;;;5086696;28;20209;-62
2023/12/01 12:04:30;;;;;;;2.83;2.63;;;;;;;;;;5087366;28;20263;-62
2023/12/01 12:07:00;;;;;;;4.17;2.30;;;;;;;;;;5087041;28;20209;-63
2023/12/01 12:09:28;;;;;;;2.13;2.03;;;;;;;;;;5086930;28;20221;-62
2023/12/01 12:11:55;;;;;;;1.67;1.57;;;;;;;;;;5086263;28;20298;-62
2023/12/01 12:14:24;;;;;;;0.60;0.60;;;;;;;;;;5087214;28;20238;-62
2023/12/01 12:16:51;;;;;;;2.93;2.57;;;;;;;;;;5086964;28;20734;-63
2023/12/01 12:19:18;;;;;;;3.50;3.17;;;;;;;;;;5086429;28;20676;-62
2023/12/01 12:21:45;;;;;;;3.87;3.43;;;;;;;;;;5084652;28;20221;-62
2023/12/01 12:24:13;;;;;;;3.87;1.53;;;;;;;;;;5066936;28;20238;-62
2023/12/01 12:26:40;;;;;;;3.63;3.33;;;;;;;;;;5066596;28;20579;-62
2023/12/01 12:29:08;;;;;;;2.20;2.10;;;;;;;;;;5066798;28;20318;-62
2023/12/01 12:31:37;;;;;;;4.30;2.63;;;;;;;;;;5066581;28;20752;-63
2023/12/01 12:34:06;;;;;;;1.90;1.80;;;;;;;;;;5082679;28;20214;-62
2023/12/01 12:36:34;;;;;;;2.00;1.90;;;;;;;;;;5083629;28;20838;-66
2023/12/01 12:39:03;;;;;;;6.82;5.47;;;;;;;;;;5065947;28;20468;-65
2023/12/01 12:41:31;;;;;;;5.43;4.60;;;;;;;;;;5070551;28;20217;-63
2023/12/01 12:43:58;;;;;;;2.20;2.00;;;;;;;;;;5070523;28;20217;-65
2023/12/01 12:46:26;;;;;;;7.80;4.67;;;;;;;;;;5070517;28;20239;-65
2023/12/01 12:48:57;;;;;;;6.00;4.80;;;;;;;;;;5070755;28;20207;-64
2023/12/01 12:51:25;;;;;;;5.00;2.77;;;;;;;;;;5070556;28;20215;-62
2023/12/01 12:53:52;;;;;;;4.50;3.13;;;;;;;;;;5069944;28;20211;-62
2023/12/01 12:56:21;;;;;;;4.77;4.07;;;;;;;;;;5070229;28;20259;-62
2023/12/01 12:58:49;;;;;;;3.73;3.40;;;;;;;;;;5070424;28;20211;-65
2023/12/01 13:01:16;;;;;;;2.90;2.23;;;;;;;;;;5070340;28;20219;-66
2023/12/01 13:03:43;;;;;;;5.00;4.27;;;;;;;;;;5070111;28;20214;-62
2023/12/01 13:06:12;;;;;;;3.67;3.33;;;;;;;;;;5070127;28;20692;-66
2023/12/01 13:08:40;;;;;;;2.70;2.27;;;;;;;;;;5070048;28;20225;-63
2023/12/01 13:11:08;;;;;;;3.90;2.10;;;;;;;;;;5069874;28;20218;-61
2023/12/01 13:13:36;;;;;;;2.07;1.87;;;;;;;;;;5069970;28;20207;-63
2023/12/01 13:16:03;;;;;;;3.60;3.30;;;;;;;;;;5069932;28;20262;-63
2023/12/01 13:18:31;;;;;;;4.97;4.27;;;;;;;;;;5069971;28;20215;-63
2023/12/01 13:20:58;;;;;;;6.43;4.17;;;;;;;;;;5070119;28;20250;-62
2023/12/01 13:23:27;;;;;;;2.03;1.93;;;;;;;;;;5069689;28;20285;-62
2023/12/01 13:25:54;;;;;;;4.63;2.30;;;;;;;;;;5070185;28;20203;-65
2023/12/01 13:28:22;;;;;;;3.67;2.50;;;;;;;;;;5069678;28;20222;-66
2023/12/01 13:30:50;;;;;;;5.00;2.80;;;;;;;;;;5068667;28;20233;-65
2023/12/01 13:33:17;;;;;;;2.63;2.43;;;;;;;;;;5069464;28;20222;-65
2023/12/01 13:35:44;;;;;;;1.80;1.70;;;;;;;;;;5080598;28;20305;-63
2023/12/01 13:38:12;;;;;;;3.43;2.33;;;;;;;;;;5088607;28;20239;-62
2023/12/01 13:40:41;;;;;;;5.10;3.80;;;;;;;;;;5078024;28;20233;-65
2023/12/01 13:43:08;;;;;;;2.33;1.73;;;;;;;;;;5089018;28;20630;-63
2023/12/01 13:45:36;;;;;;;4.43;2.50;;;;;;;;;;5089485;28;20608;-63
2023/12/01 13:48:03;;;;;;;4.93;1.80;;;;;;;;;;5089779;28;20228;-63
2023/12/01 13:50:30;;;;;;;2.77;2.53;;;;;;;;;;5075272;28;20199;-63
2023/12/01 13:52:57;;;;;;;1.77;1.67;;;;;;;;;;5076610;28;20213;-66
2023/12/01 13:55:24;;;;;;;2.13;1.93;;;;;;;;;;5069189;28;20953;-63
2023/12/01 13:57:53;;;;;;;1.93;1.83;;;;;;;;;;5069787;28;20261;-63
2023/12/01 14:00:22;;;;;;;3.80;3.13;;;;;;;;;;5088704;28;20213;-63
2023/12/01 14:02:50;;;;;;;0.60;0.60;;;;;;;;;;5089790;28;20262;-64
2023/12/01 14:05:18;;;;;;;2.30;1.63;;;;;;;;;;5089604;28;20206;-63
2023/12/01 14:07:45;;;;;;;4.03;2.60;;;;;;;;;;5089902;28;20234;-63
2023/12/01 14:10:12;;;;;;;3.63;2.93;;;;;;;;;;5089160;28;20209;-63
2023/12/01 14:12:39;;;;;;;4.07;3.67;;;;;;;;;;5073673;28;20207;-65
2023/12/01 14:15:08;;;;;;;3.00;2.60;;;;;;;;;;5076502;28;20217;-63
2023/12/01 14:17:35;;;;;;;1.37;1.27;;;;;;;;;;5089894;28;20214;-64
2023/12/01 14:20:02;;;;;;;3.03;2.33;;;;;;;;;;5086841;28;20218;-63
2023/12/01 14:22:30;;;;;;;3.50;1.93;;;;;;;;;;5087068;28;20253;-63
2023/12/01 14:24:57;;;;;;;2.83;2.50;;;;;;;;;;5082573;28;20298;-65
2023/12/01 14:27:24;;;;;;;4.03;3.03;;;;;;;;;;5085795;28;20674;-63
2023/12/01 14:29:51;;;;;;;2.67;2.30;;;;;;;;;;5073812;28;20210;-63
2023/12/01 14:32:19;;;;;;;1.57;1.47;;;;;;;;;;5070457;28;20210;-63
2023/12/01 14:34:48;;;;;;;1.83;1.73;;;;;;;;;;5082563;28;20588;-66
2023/12/01 14:37:15;;;;;;;1.77;1.67;;;;;;;;;;5086830;28;20224;-64
2023/12/01 14:39:43;;;;;;;3.67;3.10;;;;;;;;;;5080358;28;20666;-63
2023/12/01 14:42:11;;;;;;;4.07;2.00;;;;;;;;;;5088298;28;20206;-64
2023/12/01 14:44:38;;;;;;;4.47;3.37;;;;;;;;;;5086557;28;20216;-63
2023/12/01 14:47:06;;;;;;;3.77;2.77;;;;;;;;;;5088454;28;20271;-64